createdAt,value
2022-08-26T00:00:48.075Z,21.70
2022-08-26T00:03:15.346Z,23.88
2022-08-26T00:05:44.850Z,21.88
2022-08-26T00:08:13.206Z,23.58
2022-08-26T00:10:40.191Z,24.40
2022-08-26T00:13:07.747Z,25.77
2022-08-26T00:15:35.440Z,24.63
2022-08-26T00:18:02.122Z,24.05
2022-08-26T00:20:30.451Z,24.42
2022-08-26T00:22:57.616Z,24.42
2022-08-26T00:25:25.666Z,26.13
2022-08-26T00:27:53.036Z,26.35
2022-08-26T00:32:47.757Z,25.90
2022-08-26T00:35:15.387Z,27.08
2022-08-26T00:37:42.760Z,26.05
2022-08-26T00:40:11.607Z,27.25
2022-08-26T00:42:38.391Z,25.75
2022-08-26T00:47:39.991Z,27.25
2022-08-26T00:50:10.522Z,26.65
2022-08-26T00:52:37.643Z,26.42
2022-08-26T00:55:05.218Z,26.60
2022-08-26T00:57:32.937Z,24.50
2022-08-26T01:00:01.381Z,26.10
2022-08-26T01:02:28.874Z,25.85
2022-08-26T01:04:58.028Z,26.60
2022-08-26T01:19:41.362Z,25.95
2022-08-26T01:22:10.145Z,25.67
2022-08-26T01:24:38.124Z,27.23
2022-08-26T01:27:07.382Z,27.75
2022-08-26T01:32:02.751Z,26.48
2022-08-26T01:34:35.088Z,26.55
2022-08-26T01:41:58.085Z,25.85
2022-08-26T01:44:31.448Z,27.23
2022-08-26T01:46:59.395Z,27.48
2022-08-26T01:49:26.901Z,26.65
2022-08-26T01:54:20.530Z,25.52
2022-08-26T01:56:50.622Z,27.10
2022-08-26T01:59:18.649Z,26.45
2022-08-26T02:01:46.890Z,24.92
2022-08-26T02:04:22.419Z,24.38
2022-08-26T02:06:49.532Z,25.20
2022-08-26T02:09:17.886Z,24.42
2022-08-26T02:11:45.234Z,25.13
2022-08-26T02:16:42.945Z,23.23
2022-08-26T02:24:13.148Z,21.73
2022-08-26T02:26:40.798Z,22.52
2022-08-26T02:29:13.639Z,21.65
2022-08-26T02:31:41.613Z,22.38
2022-08-26T02:34:13.502Z,22.17
2022-08-26T02:36:42.357Z,20.17
2022-08-26T02:39:09.042Z,20.98
2022-08-26T02:41:35.683Z,18.95
2022-08-26T02:44:11.723Z,19.98
2022-08-26T02:49:05.183Z,21.00
2022-08-26T02:51:32.845Z,20.13
2022-08-26T02:54:00.031Z,19.42
2022-08-26T02:56:29.418Z,19.23
2022-08-26T02:58:56.599Z,18.85
2022-08-26T03:01:26.314Z,18.10
2022-08-26T03:06:19.523Z,18.52
2022-08-26T03:08:46.309Z,16.55
2022-08-26T03:11:13.958Z,17.65
2022-08-26T03:13:42.157Z,17.50
2022-08-26T03:16:09.058Z,15.63
2022-08-26T03:18:36.263Z,16.35
2022-08-26T03:21:11.013Z,15.82
2022-08-26T03:23:38.905Z,15.38
2022-08-26T03:26:06.543Z,15.90
2022-08-26T03:28:33.426Z,14.77
2022-08-26T03:31:02.676Z,15.18
2022-08-26T03:33:29.622Z,15.80
2022-08-26T03:35:56.283Z,15.68
2022-08-26T03:38:25.338Z,15.13
2022-08-26T03:40:52.621Z,14.70
2022-08-26T03:43:20.116Z,14.35
2022-08-26T03:48:12.176Z,14.30
2022-08-26T03:50:39.025Z,13.50
2022-08-26T03:53:07.509Z,12.90
2022-08-26T03:55:39.750Z,14.10
2022-08-26T04:02:57.460Z,14.10
2022-08-26T04:07:50.927Z,12.85
2022-08-26T04:10:20.132Z,12.50
2022-08-26T04:12:47.148Z,13.93
2022-08-26T04:15:15.644Z,12.70
2022-08-26T04:17:42.584Z,13.32
2022-08-26T04:22:35.315Z,13.77
2022-08-26T04:25:02.449Z,12.75
2022-08-26T04:27:29.163Z,13.70
2022-08-26T04:29:55.839Z,13.55
2022-08-26T04:32:22.537Z,13.63
2022-08-26T04:39:40.017Z,12.98
2022-08-26T04:42:06.833Z,12.95
2022-08-26T04:44:34.851Z,13.18
2022-08-26T04:47:01.522Z,13.50
2022-08-26T04:54:20.607Z,12.82
2022-08-26T04:56:49.596Z,13.65
2022-08-26T04:59:18.198Z,13.52
2022-08-26T05:01:49.258Z,13.15
2022-08-26T05:06:42.139Z,14.35
2022-08-26T05:09:09.415Z,13.57
2022-08-26T05:11:37.378Z,13.48
2022-08-26T05:14:05.203Z,13.60
2022-08-26T05:16:32.538Z,13.48
2022-08-26T05:18:59.158Z,12.32
2022-08-26T05:21:27.152Z,13.57
2022-08-26T05:23:55.063Z,12.98
2022-08-26T05:31:18.692Z,13.25
2022-08-26T05:33:46.698Z,13.85
2022-08-26T05:41:14.277Z,13.15
2022-08-26T05:43:43.802Z,13.32
2022-08-26T05:46:10.696Z,12.90
2022-08-26T05:48:37.495Z,13.35
2022-08-26T05:51:06.208Z,13.00
2022-08-26T05:53:33.074Z,13.10
2022-08-26T05:55:59.701Z,12.70
2022-08-26T05:58:27.024Z,12.27
2022-08-26T06:00:59.730Z,12.05
2022-08-26T06:03:26.761Z,12.68
2022-08-26T06:05:53.635Z,12.23
2022-08-26T06:10:49.802Z,10.02
2022-08-26T06:13:18.445Z,9.32
2022-08-26T06:20:37.993Z,6.28
2022-08-26T06:25:49.108Z,6.05
2022-08-26T06:28:16.090Z,5.32
2022-08-26T06:30:42.856Z,4.97
2022-08-26T06:33:09.816Z,4.65
2022-08-26T06:35:37.806Z,4.63
2022-08-26T06:42:55.561Z,4.40
2022-08-26T06:58:43.992Z,4.63
2022-08-26T07:01:18.331Z,3.97
2022-08-26T07:03:47.399Z,3.45
2022-08-26T07:06:15.202Z,4.13
2022-08-26T07:08:43.304Z,3.50
2022-08-26T07:13:37.786Z,3.35
2022-08-26T07:16:08.368Z,4.47
2022-08-26T07:18:37.048Z,4.25
2022-08-26T07:21:07.473Z,3.25
2022-08-26T07:23:35.095Z,3.85
2022-08-26T07:26:05.556Z,4.10
2022-08-26T07:28:32.301Z,3.70
2022-08-26T07:30:59.598Z,4.35
2022-08-26T07:33:26.372Z,4.13
2022-08-26T07:35:53.779Z,4.13
2022-08-26T07:38:20.404Z,4.22
2022-08-26T07:40:48.083Z,4.20
2022-08-26T07:43:14.853Z,4.07
2022-08-26T07:45:42.561Z,4.40
2022-08-26T07:48:09.288Z,5.65
2022-08-26T07:50:49.133Z,4.72
2022-08-26T07:53:18.181Z,5.00
2022-08-26T07:55:46.409Z,5.80
2022-08-26T07:58:13.742Z,5.05
2022-08-26T08:03:06.367Z,5.13
2022-08-26T08:05:33.905Z,5.82
2022-08-26T08:12:53.640Z,5.95
2022-08-26T08:15:24.230Z,6.95
2022-08-26T08:17:51.589Z,7.10
2022-08-26T08:20:19.179Z,6.38
2022-08-26T08:22:46.083Z,6.82
2022-08-26T08:25:14.965Z,6.50
2022-08-26T08:27:42.558Z,7.68
2022-08-26T08:30:10.080Z,8.05
2022-08-26T08:35:11.592Z,7.85
2022-08-26T08:37:38.585Z,8.30
2022-08-26T08:42:30.908Z,9.43
2022-08-26T08:44:59.391Z,8.48
2022-08-26T09:00:03.546Z,8.60
2022-08-26T09:02:34.643Z,8.07
2022-08-26T09:05:18.015Z,6.93
2022-08-26T09:07:53.660Z,7.35
2022-08-26T09:18:10.049Z,6.43
2022-08-26T09:20:52.664Z,6.35
2022-08-26T09:33:15.768Z,5.93
2022-08-26T09:40:37.964Z,4.07
2022-08-26T09:43:06.122Z,3.65
2022-08-26T09:45:34.215Z,3.60
2022-08-26T09:50:37.861Z,4.13
2022-08-26T09:58:37.903Z,4.07
2022-08-26T10:01:06.614Z,4.22
2022-08-26T10:03:35.482Z,4.40
2022-08-26T10:11:31.395Z,3.58
2022-08-26T10:14:15.801Z,3.17
2022-08-26T10:16:42.558Z,3.20
2022-08-26T10:19:11.827Z,3.33
2022-08-26T10:21:42.643Z,3.28
2022-08-26T10:24:11.536Z,3.35
2022-08-26T10:26:38.370Z,3.50
2022-08-26T10:29:07.901Z,3.40
2022-08-26T10:31:51.428Z,2.65
2022-08-26T10:39:55.258Z,3.10
2022-08-26T10:42:40.643Z,3.83
2022-08-26T10:45:11.975Z,3.20
2022-08-26T10:47:48.525Z,3.28
2022-08-26T10:55:44.179Z,2.85
2022-08-26T10:58:29.725Z,2.47
2022-08-26T11:01:40.710Z,3.63
2022-08-26T11:04:27.490Z,3.40
2022-08-26T11:07:13.100Z,3.00
2022-08-26T11:09:45.208Z,2.95
2022-08-26T11:20:12.387Z,3.35
2022-08-26T11:22:48.191Z,3.47
2022-08-26T11:30:18.411Z,2.92
2022-08-26T11:32:53.812Z,2.88
2022-08-26T11:42:51.797Z,3.13
2022-08-26T11:45:22.618Z,2.60
2022-08-26T11:47:50.478Z,2.90
2022-08-26T11:50:19.992Z,2.75
2022-08-26T11:52:54.922Z,2.53
2022-08-26T11:57:51.097Z,2.50
2022-08-26T12:00:22.177Z,2.55
2022-08-26T12:10:24.342Z,2.33
2022-08-26T12:17:54.524Z,2.17
2022-08-26T12:20:48.540Z,2.83
2022-08-26T12:23:36.743Z,2.17
2022-08-26T12:26:29.666Z,2.80
2022-08-26T12:28:58.441Z,2.20
2022-08-26T12:31:36.374Z,2.67
2022-08-26T12:34:04.974Z,2.65
2022-08-26T12:37:04.143Z,2.80
2022-08-26T12:39:36.345Z,2.65
2022-08-26T12:44:53.306Z,2.10
2022-08-26T12:47:35.199Z,2.42
2022-08-26T12:50:20.663Z,2.00
2022-08-26T13:00:38.016Z,2.25
2022-08-26T13:03:04.892Z,2.75
2022-08-26T13:05:33.351Z,1.92
2022-08-26T13:08:10.731Z,2.63
2022-08-26T13:10:38.624Z,1.95
2022-08-26T13:13:05.399Z,2.20
2022-08-26T13:22:58.526Z,2.10
2022-08-26T13:25:25.967Z,2.10
2022-08-26T13:35:10.776Z,1.75
2022-08-26T13:37:37.483Z,2.40
2022-08-26T13:40:05.835Z,2.38
2022-08-26T13:42:32.643Z,2.17
2022-08-26T13:45:04.093Z,2.15
2022-08-26T13:47:31.008Z,2.35
2022-08-26T13:49:57.863Z,2.15
2022-08-26T13:52:30.383Z,2.28
2022-08-26T14:02:16.921Z,2.67
2022-08-26T14:04:44.222Z,2.10
2022-08-26T14:07:10.902Z,1.70
2022-08-26T14:09:38.496Z,2.15
2022-08-26T14:12:05.360Z,2.05
2022-08-26T14:14:32.051Z,2.00
2022-08-26T14:24:21.805Z,1.90
2022-08-26T14:26:48.683Z,1.73
2022-08-26T14:29:16.864Z,2.08
2022-08-26T14:31:43.959Z,1.60
2022-08-26T14:36:38.234Z,1.80
2022-08-26T14:39:06.425Z,1.70
2022-08-26T14:41:34.468Z,2.20
2022-08-26T14:44:03.313Z,2.00
2022-08-26T14:46:30.936Z,1.95
2022-08-26T14:49:01.654Z,1.98
2022-08-26T15:08:53.518Z,1.95
2022-08-26T15:11:20.373Z,2.38
2022-08-26T15:13:47.187Z,1.92
2022-08-26T15:16:14.520Z,2.05
2022-08-26T15:18:41.575Z,1.83
2022-08-26T15:40:33.943Z,2.70
2022-08-26T15:43:18.395Z,2.17
2022-08-26T15:45:48.557Z,1.77
2022-08-26T15:53:14.170Z,2.35
2022-08-26T16:02:57.758Z,1.90
2022-08-26T16:05:39.399Z,1.90
2022-08-26T16:08:27.280Z,2.63
2022-08-26T16:15:51.089Z,1.80
2022-08-26T16:21:12.320Z,1.67
2022-08-26T16:26:41.235Z,2.17
2022-08-26T16:29:13.345Z,1.95
2022-08-26T16:31:40.416Z,1.90
2022-08-26T16:40:31.474Z,1.83
2022-08-26T16:42:58.673Z,1.83
2022-08-26T16:45:28.380Z,1.90
2022-08-26T16:47:55.437Z,2.50
2022-08-26T16:50:23.187Z,2.30
2022-08-26T16:52:55.631Z,2.05
2022-08-26T16:55:23.079Z,1.92
2022-08-26T16:57:50.578Z,1.75
2022-08-26T17:00:24.615Z,2.30
2022-08-26T17:02:51.409Z,2.42
2022-08-26T17:05:20.871Z,1.90
2022-08-26T17:07:47.582Z,1.95
2022-08-26T17:10:14.259Z,1.60
2022-08-26T17:12:40.863Z,1.80
2022-08-26T17:15:08.171Z,1.83
2022-08-26T17:17:35.274Z,1.80
2022-08-26T17:22:35.583Z,1.98
2022-08-26T17:25:07.117Z,1.88
2022-08-26T17:27:37.210Z,1.38
2022-08-26T17:30:05.006Z,2.45
2022-08-26T17:32:31.990Z,2.00
2022-08-26T17:42:15.755Z,2.13
2022-08-26T17:44:51.390Z,2.50
2022-08-26T17:47:21.670Z,2.20
2022-08-26T17:49:55.917Z,1.90
2022-08-26T18:21:38.862Z,2.17
2022-08-26T18:24:07.048Z,2.70
2022-08-26T18:26:40.673Z,2.20
2022-08-26T18:31:34.154Z,2.35
2022-08-26T18:34:02.379Z,2.85
2022-08-26T18:41:25.719Z,2.50
2022-08-26T18:43:54.100Z,2.40
2022-08-26T18:51:17.889Z,2.63
2022-08-26T18:56:10.225Z,2.60
2022-08-26T18:58:36.897Z,2.75
2022-08-26T19:03:29.235Z,2.75
2022-08-26T19:05:59.397Z,2.70
2022-08-26T19:18:14.636Z,3.10
2022-08-26T19:20:46.383Z,2.35
2022-08-26T19:23:28.528Z,2.60
2022-08-26T19:25:57.485Z,3.05
2022-08-26T19:33:16.101Z,2.83
2022-08-26T19:35:43.668Z,3.55
2022-08-26T19:38:10.726Z,3.30
2022-08-26T19:40:38.648Z,3.20
2022-08-26T19:52:48.971Z,2.55
2022-08-26T19:55:17.174Z,2.92
2022-08-26T19:57:45.633Z,3.00
2022-08-26T20:00:15.032Z,3.45
2022-08-26T20:02:42.172Z,2.95
2022-08-26T20:05:10.907Z,3.35
2022-08-26T20:07:40.288Z,3.65
2022-08-26T20:10:07.867Z,3.47
2022-08-26T20:15:05.752Z,2.92
2022-08-26T20:17:33.170Z,3.10
2022-08-26T20:35:01.733Z,3.47
2022-08-26T20:37:29.461Z,3.45
2022-08-26T20:39:57.509Z,3.30
2022-08-26T20:50:18.551Z,3.47
2022-08-26T20:52:46.445Z,3.38
2022-08-26T21:08:05.802Z,3.67
2022-08-26T21:12:58.750Z,4.00
2022-08-26T21:15:28.760Z,3.78
2022-08-26T21:17:58.289Z,3.90
2022-08-26T21:32:37.025Z,3.90
2022-08-26T21:35:08.223Z,3.90
2022-08-26T21:52:36.071Z,4.20
2022-08-26T21:55:04.336Z,5.03
2022-08-26T21:57:38.412Z,4.80
2022-08-26T22:00:08.489Z,4.35
2022-08-26T22:02:35.237Z,5.22
2022-08-26T22:09:52.855Z,4.90
2022-08-26T22:17:15.102Z,4.35
2022-08-26T22:19:45.756Z,4.75
2022-08-26T22:22:13.838Z,5.20
2022-08-26T22:24:40.480Z,4.93
2022-08-26T22:31:58.845Z,4.72
2022-08-26T22:34:25.635Z,4.63
2022-08-26T22:36:52.314Z,5.53
2022-08-26T22:39:24.289Z,5.78
2022-08-26T22:41:51.882Z,5.18
2022-08-26T22:44:20.445Z,4.95
2022-08-26T22:46:48.106Z,5.65
2022-08-26T22:49:16.554Z,5.35
2022-08-26T22:51:44.300Z,5.63
2022-08-26T22:54:11.246Z,5.35
2022-08-26T22:59:04.278Z,4.95
2022-08-26T23:01:31.193Z,6.15
2022-08-26T23:08:49.514Z,5.95
2022-08-26T23:16:09.266Z,6.18
2022-08-26T23:18:36.096Z,5.65
2022-08-26T23:21:02.946Z,5.43
2022-08-26T23:23:29.647Z,5.38
2022-08-26T23:25:56.345Z,5.68
2022-08-26T23:38:14.008Z,5.65
2022-08-26T23:40:41.030Z,5.03
2022-08-26T23:43:08.596Z,5.15
2022-08-26T23:45:35.710Z,5.75
2022-08-26T23:48:03.206Z,5.20
2022-08-26T23:50:49.841Z,5.68
